createdAt,value
2023-11-25T00:01:01.437Z,44.80
2023-11-25T00:03:39.356Z,37.80
2023-11-25T00:06:08.478Z,21.10
2023-11-25T00:08:36.363Z,20.00
2023-11-25T00:11:12.131Z,18.30
2023-11-25T00:13:46.405Z,18.20
2023-11-25T00:16:14.510Z,19.00
2023-11-25T00:18:42.657Z,19.30
2023-11-25T00:21:10.867Z,18.80
2023-11-25T00:23:39.091Z,20.00
2023-11-25T00:26:06.986Z,18.60
2023-11-25T00:28:34.968Z,17.90
2023-11-25T00:31:03.290Z,21.50
2023-11-25T00:33:31.285Z,22.40
2023-11-25T00:35:59.809Z,20.40
2023-11-25T00:38:27.847Z,18.50
2023-11-25T00:40:55.720Z,18.00
2023-11-25T00:43:23.955Z,18.30
2023-11-25T00:45:52.093Z,17.40
2023-11-25T00:48:20.144Z,15.90
2023-11-25T00:51:26.090Z,14.80
2023-11-25T00:53:57.664Z,14.30
2023-11-25T00:56:25.569Z,14.00
2023-11-25T00:58:53.500Z,37.80
2023-11-25T01:01:21.645Z,16.00
2023-11-25T01:03:49.825Z,14.30
2023-11-25T01:06:17.896Z,13.90
2023-11-25T01:08:46.111Z,13.40
2023-11-25T01:11:17.139Z,21.00
2023-11-25T01:14:04.033Z,12.80
2023-11-25T01:16:51.340Z,12.50
2023-11-25T01:19:19.324Z,29.50
2023-11-25T01:21:47.239Z,13.60
2023-11-25T01:24:16.121Z,14.10
2023-11-25T01:26:44.185Z,14.40
2023-11-25T01:29:12.177Z,14.30
2023-11-25T01:31:40.127Z,24.50
2023-11-25T01:34:08.214Z,16.70
2023-11-25T01:36:36.248Z,15.40
2023-11-25T01:39:04.310Z,15.30
2023-11-25T01:41:32.558Z,14.90
2023-11-25T01:44:00.767Z,17.70
2023-11-25T01:46:39.231Z,18.90
2023-11-25T01:49:09.482Z,16.60
2023-11-25T01:51:42.607Z,21.80
2023-11-25T01:54:13.927Z,16.60
2023-11-25T01:56:43.288Z,17.60
2023-11-25T01:59:15.861Z,18.40
2023-11-25T02:01:46.075Z,18.00
2023-11-25T02:04:14.133Z,19.40
2023-11-25T02:06:42.115Z,18.70
2023-11-25T02:09:10.019Z,21.00
2023-11-25T02:11:57.830Z,20.10
2023-11-25T02:14:26.703Z,20.70
2023-11-25T02:16:55.803Z,19.60
2023-11-25T02:19:24.722Z,20.60
2023-11-25T02:21:53.430Z,19.60
2023-11-25T02:24:21.532Z,20.20
2023-11-25T02:26:58.514Z,19.50
2023-11-25T02:29:28.005Z,17.20
2023-11-25T02:31:56.414Z,17.10
2023-11-25T02:34:24.791Z,19.30
2023-11-25T02:36:53.543Z,22.20
2023-11-25T02:39:40.568Z,20.30
2023-11-25T02:42:08.639Z,24.80
2023-11-25T02:44:36.788Z,25.80
2023-11-25T02:47:05.122Z,21.10
2023-11-25T02:49:33.165Z,17.70
2023-11-25T02:52:02.297Z,17.10
2023-11-25T02:54:30.394Z,16.10
2023-11-25T02:56:58.350Z,14.40
2023-11-25T02:59:26.268Z,12.90
2023-11-25T03:02:06.418Z,12.80
2023-11-25T03:04:34.548Z,13.30
2023-11-25T03:07:02.526Z,12.10
2023-11-25T03:09:30.504Z,13.00
2023-11-25T03:11:58.342Z,13.60
2023-11-25T03:14:26.337Z,14.50
2023-11-25T03:16:56.202Z,16.00
2023-11-25T03:19:24.158Z,15.70
2023-11-25T03:21:53.724Z,14.90
2023-11-25T03:24:21.921Z,15.10
2023-11-25T03:26:49.802Z,15.30
2023-11-25T03:29:17.677Z,14.20
2023-11-25T03:31:46.161Z,14.30
2023-11-25T03:34:14.334Z,14.60
2023-11-25T03:36:42.522Z,16.60
2023-11-25T03:39:10.527Z,17.00
2023-11-25T03:41:38.452Z,15.50
2023-11-25T03:44:07.268Z,16.30
2023-11-25T03:46:35.344Z,16.80
2023-11-25T03:49:03.793Z,16.70
2023-11-25T03:51:31.725Z,18.20
2023-11-25T03:53:59.582Z,16.80
2023-11-25T03:56:27.630Z,18.30
2023-11-25T03:58:55.550Z,17.00
2023-11-25T04:01:23.615Z,16.90
2023-11-25T04:03:51.747Z,17.00
2023-11-25T04:06:19.791Z,13.80
2023-11-25T04:08:47.700Z,15.40
2023-11-25T04:11:15.598Z,15.80
2023-11-25T04:13:43.641Z,16.30
2023-11-25T04:16:11.639Z,15.60
2023-11-25T04:18:39.544Z,15.00
2023-11-25T04:21:07.738Z,12.70
2023-11-25T04:23:35.842Z,14.40
2023-11-25T04:26:03.768Z,13.80
2023-11-25T04:28:31.688Z,13.70
2023-11-25T04:31:00.072Z,14.40
2023-11-25T04:33:28.006Z,11.70
2023-11-25T04:35:55.857Z,7.60
2023-11-25T04:38:23.875Z,5.10
2023-11-25T04:40:51.837Z,4.30
2023-11-25T04:43:19.761Z,2.80
2023-11-25T04:45:47.683Z,2.50
2023-11-25T04:48:15.546Z,2.10
2023-11-25T04:50:45.681Z,2.10
2023-11-25T04:53:14.418Z,1.70
2023-11-25T04:55:42.284Z,1.90
2023-11-25T04:58:10.232Z,1.60
2023-11-25T05:00:38.321Z,1.80
2023-11-25T05:03:06.454Z,1.70
2023-11-25T05:05:34.537Z,2.10
2023-11-25T05:08:02.581Z,2.00
2023-11-25T05:10:30.889Z,2.20
2023-11-25T05:12:58.864Z,2.50
2023-11-25T05:15:27.069Z,2.80
2023-11-25T05:17:55.092Z,2.90
2023-11-25T05:20:23.049Z,2.40
2023-11-25T05:22:51.013Z,3.30
2023-11-25T05:25:18.998Z,3.20
2023-11-25T05:27:46.980Z,3.30
2023-11-25T05:30:15.542Z,3.90
2023-11-25T05:32:44.294Z,4.10
2023-11-25T05:35:15.011Z,3.80
2023-11-25T05:37:44.336Z,4.50
2023-11-25T05:40:12.804Z,4.00
2023-11-25T05:42:41.130Z,4.40
2023-11-25T05:45:09.606Z,4.30
2023-11-25T05:47:37.578Z,4.20
2023-11-25T05:50:06.576Z,4.20
2023-11-25T05:52:34.597Z,4.80
2023-11-25T05:55:02.642Z,4.50
2023-11-25T05:57:30.583Z,4.20
2023-11-25T05:59:58.506Z,4.20
2023-11-25T06:02:26.480Z,5.00
2023-11-25T06:04:54.539Z,4.00
2023-11-25T06:07:22.912Z,3.70
2023-11-25T06:09:50.837Z,4.10
2023-11-25T06:12:19.385Z,2.60
2023-11-25T06:14:47.659Z,2.40
2023-11-25T06:17:15.793Z,3.40
2023-11-25T06:19:43.840Z,3.60
2023-11-25T06:22:11.938Z,3.10
2023-11-25T06:24:39.906Z,2.70
2023-11-25T06:27:08.050Z,2.90
2023-11-25T06:29:36.027Z,2.90
2023-11-25T06:32:04.125Z,3.10
2023-11-25T06:34:32.254Z,3.00
2023-11-25T06:37:00.105Z,4.20
2023-11-25T06:39:28.055Z,3.90
2023-11-25T06:41:56.038Z,3.60
2023-11-25T06:44:23.970Z,3.70
2023-11-25T06:46:52.165Z,3.20
2023-11-25T06:49:20.184Z,3.80
2023-11-25T06:51:48.153Z,3.30
2023-11-25T06:54:16.434Z,3.50
2023-11-25T06:56:46.738Z,4.00
2023-11-25T06:59:14.643Z,4.30
2023-11-25T07:01:42.574Z,4.40
2023-11-25T07:04:10.536Z,4.40
2023-11-25T07:06:38.532Z,5.10
2023-11-25T07:09:06.422Z,4.20
2023-11-25T07:11:34.386Z,4.20
2023-11-25T07:14:02.730Z,4.60
2023-11-25T07:16:30.630Z,3.40
2023-11-25T07:18:58.631Z,3.80
2023-11-25T07:21:26.557Z,3.90
2023-11-25T07:23:54.508Z,3.70
2023-11-25T07:26:22.395Z,3.40
2023-11-25T07:28:50.487Z,3.70
2023-11-25T07:31:18.450Z,3.80
2023-11-25T07:33:50.122Z,4.00
2023-11-25T07:36:19.694Z,3.80
2023-11-25T07:38:47.606Z,4.10
2023-11-25T07:41:18.342Z,4.10
2023-11-25T07:43:46.464Z,4.10
2023-11-25T07:46:14.516Z,4.50
2023-11-25T07:48:42.449Z,4.10
2023-11-25T07:51:11.026Z,3.50
2023-11-25T07:53:38.969Z,4.70
2023-11-25T07:56:07.286Z,4.90
2023-11-25T07:58:35.562Z,5.30
2023-11-25T08:01:03.502Z,4.90
2023-11-25T08:03:31.449Z,5.60
2023-11-25T08:06:00.089Z,4.30
2023-11-25T08:08:28.152Z,6.30
2023-11-25T08:10:56.077Z,6.20
2023-11-25T08:13:24.039Z,6.10
2023-11-25T08:15:52.488Z,6.00
2023-11-25T08:18:20.942Z,6.00
2023-11-25T08:20:48.908Z,6.40
2023-11-25T08:23:18.571Z,5.70
2023-11-25T08:25:47.047Z,6.10
2023-11-25T08:28:14.982Z,7.00
2023-11-25T08:30:42.938Z,6.50
2023-11-25T08:33:11.127Z,8.40
2023-11-25T08:35:39.145Z,6.40
2023-11-25T08:38:07.318Z,6.20
2023-11-25T08:40:35.251Z,6.40
2023-11-25T08:43:03.883Z,6.10
2023-11-25T08:45:31.942Z,6.40
2023-11-25T08:48:01.240Z,6.60
2023-11-25T08:50:30.114Z,5.10
2023-11-25T08:53:00.620Z,8.10
2023-11-25T08:55:29.092Z,6.80
2023-11-25T08:57:59.683Z,6.90
2023-11-25T09:00:28.075Z,6.10
2023-11-25T09:02:56.364Z,6.70
2023-11-25T09:05:33.208Z,9.40
2023-11-25T09:08:13.806Z,6.80
2023-11-25T09:10:45.297Z,16.70
2023-11-25T09:19:32.287Z,51.60
2023-11-25T09:22:00.527Z,15.90
2023-11-25T09:24:28.743Z,7.60
2023-11-25T09:26:57.486Z,45.70
2023-11-25T09:29:25.881Z,33.50
2023-11-25T09:31:54.110Z,68.00
2023-11-25T09:34:22.676Z,12.20
2023-11-25T09:36:52.576Z,35.80
2023-11-25T09:39:20.615Z,18.70
2023-11-25T09:41:48.832Z,8.80
2023-11-25T09:44:17.645Z,12.10
2023-11-25T09:46:48.989Z,6.40
2023-11-25T09:49:17.823Z,5.00
2023-11-25T09:51:46.826Z,5.50
2023-11-25T09:54:22.235Z,19.50
2023-11-25T09:56:50.896Z,6.10
2023-11-25T09:59:19.132Z,9.80
2023-11-25T10:01:47.560Z,9.10
2023-11-25T10:04:22.431Z,7.80
2023-11-25T10:06:53.745Z,7.20
2023-11-25T10:09:22.155Z,7.30
2023-11-25T10:11:50.371Z,6.60
2023-11-25T10:14:18.368Z,6.80
2023-11-25T10:16:46.471Z,6.90
2023-11-25T10:19:20.151Z,7.10
2023-11-25T10:21:50.242Z,7.40
2023-11-25T10:24:19.472Z,8.00
2023-11-25T10:26:50.858Z,9.50
2023-11-25T10:29:27.063Z,6.80
2023-11-25T10:35:43.051Z,6.00
2023-11-25T10:38:16.810Z,7.10
2023-11-25T10:41:04.114Z,6.70
2023-11-25T10:43:44.330Z,4.30
2023-11-25T10:46:12.678Z,5.80
2023-11-25T10:51:30.516Z,8.80
2023-11-25T10:54:00.581Z,4.80
2023-11-25T10:56:31.082Z,16.20
2023-11-25T10:59:01.216Z,11.30
2023-11-25T11:01:33.229Z,4.10
2023-11-25T11:04:14.681Z,3.00
2023-11-25T11:06:55.930Z,2.90
2023-11-25T11:09:26.819Z,4.40
2023-11-25T11:12:09.129Z,3.50
2023-11-25T11:14:48.578Z,2.30
2023-11-25T11:17:35.235Z,3.20
2023-11-25T11:20:11.190Z,2.80
2023-11-25T11:22:57.643Z,2.90
2023-11-25T11:29:25.799Z,4.70
2023-11-25T11:32:08.887Z,7.20
2023-11-25T11:34:37.651Z,8.40
2023-11-25T11:37:05.862Z,7.10
2023-11-25T11:39:52.449Z,6.20
2023-11-25T11:42:23.740Z,5.60
2023-11-25T11:44:59.761Z,5.10
2023-11-25T11:47:28.674Z,10.50
2023-11-25T11:50:01.090Z,5.00
2023-11-25T11:52:54.831Z,4.30
2023-11-25T11:55:40.514Z,5.40
2023-11-25T11:58:17.947Z,5.60
2023-11-25T12:01:08.518Z,4.10
2023-11-25T12:03:38.161Z,4.70
2023-11-25T12:06:07.461Z,5.90
2023-11-25T12:08:38.874Z,4.80
2023-11-25T12:11:07.670Z,5.70
2023-11-25T12:13:36.439Z,5.80
2023-11-25T12:16:04.938Z,4.50
2023-11-25T12:18:34.937Z,4.70
2023-11-25T12:21:04.247Z,4.40
2023-11-25T12:23:44.517Z,5.00
2023-11-25T12:26:23.558Z,4.70
2023-11-25T12:28:51.909Z,4.80
2023-11-25T12:31:20.210Z,4.30
2023-11-25T12:33:48.283Z,4.40
2023-11-25T12:36:18.952Z,4.70
2023-11-25T12:38:46.907Z,4.50
2023-11-25T12:41:15.128Z,4.10
2023-11-25T12:44:05.625Z,4.60
2023-11-25T12:46:33.807Z,4.10
2023-11-25T12:49:25.230Z,3.60
2023-11-25T12:51:53.934Z,7.80
2023-11-25T12:54:22.263Z,10.00
2023-11-25T12:56:54.896Z,10.90
2023-11-25T12:59:28.656Z,10.90
2023-11-25T13:02:17.265Z,6.20
2023-11-25T13:04:49.132Z,5.80
2023-11-25T13:07:33.654Z,4.70
2023-11-25T13:10:02.526Z,5.70
2023-11-25T13:12:31.505Z,5.50
2023-11-25T13:14:59.405Z,5.10
2023-11-25T13:17:27.474Z,5.60
2023-11-25T13:19:55.590Z,5.00
2023-11-25T13:22:25.762Z,5.30
2023-11-25T13:24:53.740Z,4.50
2023-11-25T13:27:21.737Z,4.20
2023-11-25T13:29:49.655Z,8.30
2023-11-25T13:32:17.915Z,4.20
2023-11-25T13:34:46.154Z,4.90
2023-11-25T13:37:14.155Z,4.50
2023-11-25T13:39:42.361Z,4.00
2023-11-25T13:42:10.263Z,3.90
2023-11-25T13:44:38.338Z,5.10
2023-11-25T13:47:06.339Z,6.10
2023-11-25T13:49:37.074Z,6.40
2023-11-25T13:52:05.981Z,6.60
2023-11-25T13:54:33.894Z,7.20
2023-11-25T13:57:01.896Z,5.40
2023-11-25T13:59:29.947Z,4.40
2023-11-25T14:01:58.043Z,5.20
2023-11-25T14:04:26.309Z,4.70
2023-11-25T14:06:54.434Z,4.40
2023-11-25T14:09:22.332Z,4.80
2023-11-25T14:11:50.510Z,4.60
2023-11-25T14:14:18.529Z,9.00
2023-11-25T14:16:50.451Z,5.80
2023-11-25T14:19:18.785Z,6.60
2023-11-25T14:21:47.134Z,6.40
2023-11-25T14:24:15.052Z,6.90
2023-11-25T14:26:43.147Z,6.70
2023-11-25T14:29:11.155Z,8.70
2023-11-25T14:31:39.230Z,7.60
2023-11-25T14:34:07.238Z,7.70
2023-11-25T14:36:35.243Z,6.40
2023-11-25T14:39:03.354Z,7.20
2023-11-25T14:41:31.384Z,7.80
2023-11-25T14:43:59.740Z,5.50
2023-11-25T14:46:27.809Z,6.10
2023-11-25T14:48:58.511Z,6.70
2023-11-25T14:51:26.414Z,7.20
2023-11-25T14:53:56.733Z,6.00
2023-11-25T14:56:24.818Z,6.00
2023-11-25T14:58:52.969Z,6.40
2023-11-25T15:01:21.099Z,6.00
2023-11-25T15:03:49.145Z,7.70
2023-11-25T15:06:17.500Z,6.80
2023-11-25T15:08:45.415Z,6.20
2023-11-25T15:11:13.444Z,6.60
2023-11-25T15:13:41.573Z,6.20
2023-11-25T15:16:09.485Z,6.60
2023-11-25T15:18:37.606Z,7.50
2023-11-25T15:21:05.771Z,7.80
2023-11-25T15:23:33.712Z,14.20
2023-11-25T15:26:02.533Z,10.30
2023-11-25T15:28:30.901Z,8.40
2023-11-25T15:30:59.019Z,8.50
2023-11-25T15:33:27.058Z,9.60
2023-11-25T15:36:32.325Z,10.00
2023-11-25T15:39:00.310Z,10.40
2023-11-25T15:41:28.370Z,9.80
2023-11-25T15:43:56.510Z,11.00
2023-11-25T15:46:24.644Z,10.60
2023-11-25T15:48:57.611Z,10.10
2023-11-25T15:51:25.631Z,10.00
2023-11-25T15:53:53.572Z,8.50
2023-11-25T15:56:21.949Z,9.40
2023-11-25T15:58:50.596Z,8.60
2023-11-25T16:01:18.515Z,8.90
2023-11-25T16:03:46.517Z,7.90
2023-11-25T16:06:14.537Z,7.80
2023-11-25T16:08:42.767Z,8.60
2023-11-25T16:11:11.175Z,8.20
2023-11-25T16:13:39.272Z,8.50
2023-11-25T16:16:07.558Z,8.50
2023-11-25T16:18:36.010Z,9.60
2023-11-25T16:21:04.270Z,9.10
2023-11-25T16:23:33.647Z,10.80
2023-11-25T16:26:03.088Z,10.60
2023-11-25T16:28:40.094Z,14.20
2023-11-25T16:31:11.201Z,14.30
2023-11-25T16:33:39.567Z,14.80
2023-11-25T16:36:07.874Z,14.60
2023-11-25T16:38:37.365Z,16.70
2023-11-25T16:41:05.586Z,14.60
2023-11-25T16:43:36.159Z,13.60
2023-11-25T16:46:05.564Z,16.20
2023-11-25T16:48:43.685Z,16.10
2023-11-25T16:51:19.650Z,14.80
2023-11-25T16:53:48.022Z,15.40
2023-11-25T16:56:18.345Z,16.30
2023-11-25T16:58:49.112Z,16.50
2023-11-25T17:01:17.239Z,15.60
2023-11-25T17:03:45.326Z,16.00
2023-11-25T17:06:16.485Z,14.40
2023-11-25T17:08:44.581Z,13.60
2023-11-25T17:11:12.736Z,13.10
2023-11-25T17:13:40.802Z,14.20
2023-11-25T17:16:09.182Z,13.50
2023-11-25T17:18:37.509Z,14.10
2023-11-25T17:21:05.959Z,13.90
2023-11-25T17:23:34.004Z,13.80
2023-11-25T17:26:01.960Z,12.10
2023-11-25T17:28:30.015Z,12.80
2023-11-25T17:31:06.948Z,12.80
2023-11-25T17:33:34.883Z,12.40
2023-11-25T17:36:02.915Z,11.30
2023-11-25T17:38:30.970Z,11.60
2023-11-25T17:40:59.030Z,11.90
2023-11-25T17:43:27.223Z,10.60
2023-11-25T17:45:55.420Z,10.60
2023-11-25T17:48:23.457Z,10.20
2023-11-25T17:50:51.430Z,10.70
2023-11-25T17:53:19.516Z,11.20
2023-11-25T17:55:48.966Z,12.10
2023-11-25T17:58:17.063Z,12.70
2023-11-25T18:00:45.282Z,11.60
2023-11-25T18:03:13.694Z,12.20
2023-11-25T18:05:43.230Z,13.40
2023-11-25T18:08:26.964Z,12.90
2023-11-25T18:10:55.614Z,12.40
2023-11-25T18:13:28.995Z,12.90
2023-11-25T18:18:27.439Z,13.10
2023-11-25T18:20:55.688Z,13.50
2023-11-25T18:23:30.049Z,16.10
2023-11-25T18:26:01.587Z,17.40
2023-11-25T18:28:30.730Z,14.20
2023-11-25T18:30:58.760Z,36.70
2023-11-25T18:33:27.213Z,19.50
2023-11-25T18:35:55.255Z,14.80
2023-11-25T18:38:24.665Z,12.50
2023-11-25T18:40:52.865Z,12.80
2023-11-25T18:43:21.020Z,12.70
2023-11-25T18:45:49.059Z,14.20
2023-11-25T18:48:17.255Z,18.80
2023-11-25T18:51:05.142Z,22.10
2023-11-25T18:53:34.593Z,24.20
2023-11-25T18:56:03.207Z,81.00
2023-11-25T18:58:31.641Z,17.00
2023-11-25T19:01:00.417Z,14.90
2023-11-25T19:03:30.205Z,15.10
2023-11-25T19:05:59.568Z,14.40
2023-11-25T19:08:28.084Z,15.80
2023-11-25T19:10:56.171Z,16.60
2023-11-25T19:13:25.201Z,15.90
2023-11-25T19:15:53.478Z,16.00
2023-11-25T19:18:22.233Z,15.50
2023-11-25T19:20:50.669Z,16.40
2023-11-25T19:23:18.790Z,15.30
2023-11-25T19:25:46.827Z,20.90
2023-11-25T19:28:15.517Z,16.00
2023-11-25T19:30:43.536Z,15.00
2023-11-25T19:33:11.756Z,15.80
2023-11-25T19:35:39.925Z,15.00
2023-11-25T19:38:09.159Z,14.50
2023-11-25T19:40:37.373Z,14.70
2023-11-25T19:43:08.902Z,15.30
2023-11-25T19:45:38.246Z,15.00
2023-11-25T19:48:06.520Z,14.50
2023-11-25T19:50:34.631Z,13.20
2023-11-25T19:53:03.341Z,12.90
2023-11-25T19:55:31.564Z,12.60
2023-11-25T19:58:00.437Z,11.80
2023-11-25T20:00:29.307Z,12.80
2023-11-25T20:02:57.634Z,12.10
2023-11-25T20:05:25.978Z,12.50
2023-11-25T20:07:54.352Z,12.40
2023-11-25T20:10:22.712Z,12.50
2023-11-25T20:12:50.802Z,12.50
2023-11-25T20:15:19.492Z,12.30
2023-11-25T20:17:47.802Z,14.90
2023-11-25T20:20:16.375Z,12.90
2023-11-25T20:22:47.589Z,13.10
2023-11-25T20:25:15.922Z,13.70
2023-11-25T20:27:44.840Z,12.80
2023-11-25T20:30:14.844Z,13.10
2023-11-25T20:32:44.973Z,14.40
2023-11-25T20:35:18.625Z,15.10
2023-11-25T20:40:15.746Z,15.20
2023-11-25T20:42:43.945Z,14.50
2023-11-25T20:45:13.465Z,14.30
2023-11-25T20:47:41.786Z,17.90
2023-11-25T20:50:11.624Z,15.80
2023-11-25T20:52:39.637Z,15.20
2023-11-25T20:55:09.368Z,15.80
2023-11-25T20:57:37.569Z,16.50
2023-11-25T21:00:07.743Z,19.50
2023-11-25T21:02:37.383Z,16.20
2023-11-25T21:05:06.070Z,16.70
2023-11-25T21:07:34.747Z,15.70
2023-11-25T21:10:02.903Z,16.30
2023-11-25T21:12:31.185Z,17.60
2023-11-25T21:14:59.248Z,17.10
2023-11-25T21:17:27.315Z,17.50
2023-11-25T21:19:55.295Z,17.40
2023-11-25T21:22:23.547Z,16.50
2023-11-25T21:24:56.984Z,18.50
2023-11-25T21:27:25.310Z,20.70
2023-11-25T21:29:53.218Z,19.40
2023-11-25T21:32:21.245Z,20.30
2023-11-25T21:34:49.419Z,19.30
2023-11-25T21:37:17.524Z,20.90
2023-11-25T21:39:45.542Z,19.20
2023-11-25T21:42:13.762Z,21.10
2023-11-25T21:44:43.432Z,20.50
2023-11-25T21:50:15.690Z,19.40
2023-11-25T21:52:48.012Z,23.00
2023-11-25T21:55:17.477Z,21.30
2023-11-25T21:57:49.624Z,21.30
2023-11-25T22:00:25.516Z,24.00
2023-11-25T22:02:53.693Z,27.80
2023-11-25T22:05:29.125Z,27.30
2023-11-25T22:07:57.799Z,27.00
2023-11-25T22:10:29.726Z,29.90
2023-11-25T22:12:58.402Z,31.10
2023-11-25T22:15:26.716Z,32.00
2023-11-25T22:17:55.965Z,31.30
2023-11-25T22:20:24.472Z,33.60
2023-11-25T22:22:52.584Z,39.90
2023-11-25T22:25:20.627Z,38.10
2023-11-25T22:27:48.734Z,33.70
2023-11-25T22:30:16.823Z,32.50
2023-11-25T22:32:44.889Z,30.80
2023-11-25T22:35:13.138Z,25.30
2023-11-25T22:37:41.113Z,23.70
2023-11-25T22:40:10.888Z,22.70
2023-11-25T22:42:38.811Z,25.00
2023-11-25T22:45:07.203Z,24.50
2023-11-25T22:47:36.726Z,22.90
2023-11-25T22:50:06.398Z,21.70
2023-11-25T22:52:34.312Z,22.70
2023-11-25T22:55:02.859Z,22.30
2023-11-25T22:57:30.834Z,21.30
2023-11-25T22:59:58.824Z,21.60
2023-11-25T23:02:29.774Z,21.20
2023-11-25T23:04:58.129Z,19.90
2023-11-25T23:07:26.295Z,19.00
2023-11-25T23:09:54.206Z,19.90
2023-11-25T23:12:26.406Z,17.80
2023-11-25T23:14:54.400Z,16.00
2023-11-25T23:17:22.333Z,17.70
2023-11-25T23:19:50.368Z,18.00
2023-11-25T23:22:18.312Z,18.90
2023-11-25T23:24:46.230Z,18.70
2023-11-25T23:27:14.253Z,17.70
2023-11-25T23:29:42.370Z,17.40
2023-11-25T23:32:10.450Z,17.50
2023-11-25T23:34:38.457Z,18.30
2023-11-25T23:37:06.529Z,17.30
2023-11-25T23:39:34.472Z,16.40
2023-11-25T23:42:02.567Z,16.50
2023-11-25T23:44:30.562Z,17.50
2023-11-25T23:46:58.549Z,14.90
2023-11-25T23:49:26.514Z,15.80
2023-11-25T23:51:54.431Z,14.10
2023-11-25T23:54:22.417Z,15.80
2023-11-25T23:56:50.269Z,14.70
2023-11-25T23:59:20.785Z,14.50
